Aérodrome :
LOGIN :

S'inscrire | Disclaimer

   EN    FR    IT 

 










Légende :    VFR   VFR Marginal   IFR   IFR Intensif   IFR Très Intensif
Visi : 
Plafond : 
>= 8 km
>= 3000ft
5 à 8 km
1000 à 3000 ft
1500m à 5 km
500 à 1000 ft
800 à 1500m
200 à 500 ft
< 800m
< 200 ft
Symboles :   Orages  Brouillard  Fortes neiges  Fortes précipitations  Vent > 20 kt
SIGMETs :   Divers  Orages  Givrage  Turbulence  Onde Orograph.  Cendres Volcan.






- Altitude de l'aérodrome : 22 ft
- Code IATA : FSS


EGQK - RAF Kinloss

DERNIER METAR :
  • 190620Z AUTO 17004KT 9999 FEW058/// 18/14 Q1012

METARs EXPIRÉS :
  • 190550Z AUTO 15006KT 9999 FEW038/// BKN055/// 17/14 Q1012
  • 190520Z AUTO 14002KT 9999 FEW048/// BKN060/// 16/15 Q1012
  • 190450Z AUTO 09002KT 9999 OVC049/// 15/14 Q1012
  • 190420Z AUTO 06003KT 9999 FEW044/// BKN071/// 14/13 Q1013
  • 190350Z AUTO 09003KT 9999 BKN072/// SCT160/// 14/13 Q1013
  • 190320Z AUTO 10006KT 9999 SCT038/// BKN160/// 14/13 Q1013
  • 190250Z AUTO 09007KT 9999 FEW033/// SCT180/// 14/13 Q1013
  • 190220Z AUTO 10007KT 9999 FEW035/// BKN170/// 14/14 Q1014
  • 190150Z AUTO 08006KT 9999 OVC031/// 14/14 Q1014

Prévision TAF périmée.



MET'MAP, la Météo Aéronautique d'un coup d'oeil ! - Copyright ORBIFLY Décembre 2007 - Disclaimer

ORBIFLY MET'MAP TEAM :

Programmation & Développement : Alexandra Zaïnal
Sur une idée originale de : Baudouin d'Aumeries
Soutien technique & logistique : Manuel Goepfert
Assistance : Marc-Olivier Méhu




SOURCES & CREDITS :

   NOAA